Airfield :
LOGIN :

Register | Disclaimer

   EN    FR    IT 

 










Legend :    VFR   Marginal VFR   IFR   Intensive IFR   Very Intensive IFR
Visi :
Ceiling :
>= 8 km
>= 3000ft
5 to 8 km
1000 to 3000 ft
1500m to 5 km
500 to 1000 ft
800 to 1500m
200 to 500 ft
< 800m
< 200 ft
Symbols :   Thunderstorms  Fog  Heavy snow  Heavy precipitations  Wind > 20 kt
SIGMETs :     Misc.  Thunderstorms  Icing  Turbulence  Mountain Waves  Volcanic Ashes







- Airport Elevation : 370 ft


EBBE - Beauvechain AB

CURRENT METAR :
  • 190655Z VRB01KT 9999 FEW022 SCT090 22/15 Q1007 BLU BLU

EXPIRED METARs :
  • 190625Z 25004KT 9999 FEW022 SCT070 21/15 Q1007 BLU BLU
  • 190555Z 25004KT 9999 FEW020 SCT210 20/15 Q1007 BLU BLU
  • 190525Z VRB01KT 9999 FEW020 SCT210 20/14 Q1007 BLU BLU
  • 190517Z VRB01KT 9999 FEW020 SCT210 19/15 Q1007 BLU BLU
  • 190455Z AUTO 28006KT 9999 FEW100/// 18/14 Q1007 BLU
  • 190425Z AUTO 15005KT 9999 FEW130/// 18/14 Q1007 BLU

TAF TAF EBBE
Valid from the 19 at 07:00 until the 19 at 16:00 UTC


190541Z 1907/1916 24008KT 9999 FEW020 SCT220
TEMPO 1911/1916 22015G30KT 4000 -TSRA SHRA SCT030TCU BKN080 BKN180
No reported NOTAMs for that airfield.
1 SIGMET reported for the Brussels FIR (EBBU) :
 
Frequent thunderstorms
EBBU SIGMET 02 VALID 190630/190830 EBBR
EBBU BRUSSELS FIR FRQ TS OBS WI N5113 E004 - N5121 E00426 - N5034 E00436 - N5006 E00446 - N4956 E00422 - N5113 E004 TOP FL360 MOV NE20KT INTSF=



MET'MAP, your aeronautical weather chart ! - Copyright ORBIFLY December 2007 - Disclaimer

ORBIFLY MET'MAP TEAM :

Programming & Development : Alexandra Zaïnal
Concept & Development : Baudouin d'Aumeries
Co-Development & Prog : Marc-Olivier Méhu
Technical & hardware support : Manuel Goepfert

Contact : metmap@orbifly.com




SOURCES & CREDITS :

   NOAA